createdAt,value
2023-04-05T00:01:26.494Z,-1.20
2023-04-05T00:03:55.695Z,-1.30
2023-04-05T00:06:26.470Z,-1.40
2023-04-05T00:08:55.647Z,-1.40
2023-04-05T00:11:25.659Z,-1.50
2023-04-05T00:13:54.201Z,-1.60
2023-04-05T00:16:22.924Z,-1.70
2023-04-05T00:18:51.557Z,-1.90
2023-04-05T00:21:21.828Z,-1.90
2023-04-05T00:23:51.409Z,-1.90
2023-04-05T00:26:20.144Z,-2.00
2023-04-05T00:28:50.609Z,-2.00
2023-04-05T00:31:20.032Z,-2.10
2023-04-05T00:33:48.967Z,-2.20
2023-04-05T00:36:19.076Z,-2.20
2023-04-05T00:38:49.667Z,-2.20
2023-04-05T00:41:18.104Z,-2.30
2023-04-05T00:43:46.667Z,-2.30
2023-04-05T00:46:17.198Z,-2.40
2023-04-05T00:48:45.944Z,-2.40
2023-04-05T00:51:14.496Z,-2.50
2023-04-05T00:53:43.096Z,-2.60
2023-04-05T00:56:13.593Z,-2.60
2023-04-05T00:58:43.060Z,-2.60
2023-04-05T01:01:19.207Z,-2.60
2023-04-05T01:03:53.784Z,-2.40
2023-04-05T01:06:53.103Z,-2.40
2023-04-05T01:09:36.927Z,-2.40
2023-04-05T01:12:08.696Z,-2.40
2023-04-05T01:14:49.991Z,-2.30
2023-04-05T01:17:22.193Z,-2.30
2023-04-05T01:19:53.574Z,-2.20
2023-04-05T01:23:08.156Z,-2.20
2023-04-05T01:26:15.847Z,-2.10
2023-04-05T01:29:23.077Z,-2.20
2023-04-05T01:31:56.602Z,-2.20
2023-04-05T01:34:32.144Z,-2.20
2023-04-05T01:37:05.891Z,-2.30
2023-04-05T01:39:37.084Z,-2.30
2023-04-05T01:42:06.064Z,-2.30
2023-04-05T01:44:35.870Z,-2.40
2023-04-05T01:47:04.942Z,-2.40
2023-04-05T01:49:33.399Z,-2.40
2023-04-05T01:52:01.847Z,-2.30
2023-04-05T01:54:30.258Z,-2.30
2023-04-05T01:56:58.956Z,-2.20
2023-04-05T01:59:27.496Z,-2.20
2023-04-05T02:01:57.357Z,-2.10
2023-04-05T02:04:25.893Z,-2.10
2023-04-05T02:06:54.639Z,-2.00
2023-04-05T02:09:23.033Z,-2.00
2023-04-05T02:11:51.583Z,-1.90
2023-04-05T02:14:19.961Z,-1.90
2023-04-05T02:16:48.795Z,-1.90
2023-04-05T02:19:22.948Z,-1.90
2023-04-05T02:21:53.635Z,-1.90
2023-04-05T02:24:22.101Z,-1.80
2023-04-05T02:26:51.222Z,-1.80
2023-04-05T02:29:19.651Z,-1.70
2023-04-05T02:31:48.099Z,-1.60
2023-04-05T02:34:18.017Z,-1.60
2023-04-05T02:36:47.282Z,-1.50
2023-04-05T02:39:16.132Z,-1.50
2023-04-05T02:41:44.813Z,-1.40
2023-04-05T02:44:13.763Z,-1.30
2023-04-05T02:46:42.386Z,-1.30
2023-04-05T02:49:10.786Z,-1.20
2023-04-05T02:51:40.971Z,-1.20
2023-04-05T02:54:09.466Z,-1.10
2023-04-05T02:56:37.968Z,-1.10
2023-04-05T02:59:06.913Z,-1.10
2023-04-05T03:01:36.712Z,-1.10
2023-04-05T03:04:05.581Z,-1.00
2023-04-05T03:06:34.024Z,-1.00
2023-04-05T03:09:04.678Z,-1.00
2023-04-05T03:11:34.123Z,-0.90
2023-04-05T03:14:02.617Z,-0.90
2023-04-05T03:16:31.142Z,-0.90
2023-04-05T03:19:00.161Z,-0.90
2023-04-05T03:21:29.806Z,-0.80
2023-04-05T03:23:58.586Z,-0.80
2023-04-05T03:26:28.460Z,-0.80
2023-04-05T03:28:56.908Z,-0.80
2023-04-05T03:31:26.230Z,-0.80
2023-04-05T03:33:55.222Z,-0.80
2023-04-05T03:36:23.641Z,-0.80
2023-04-05T03:38:52.689Z,-0.80
2023-04-05T03:41:21.432Z,-0.80
2023-04-05T03:43:51.626Z,-0.90
2023-04-05T03:46:20.175Z,-1.00
2023-04-05T03:48:48.573Z,-1.00
2023-04-05T03:51:18.612Z,-1.10
2023-04-05T03:53:47.534Z,-1.10
2023-04-05T03:56:16.417Z,-1.20
2023-04-05T03:58:45.265Z,-1.40
2023-04-05T04:01:15.160Z,-1.60
2023-04-05T04:03:44.014Z,-1.80
2023-04-05T04:06:12.571Z,-1.90
2023-04-05T04:08:41.171Z,-2.10
2023-04-05T04:11:09.622Z,-2.30
2023-04-05T04:13:38.029Z,-2.40
2023-04-05T04:16:07.216Z,-2.50
2023-04-05T04:18:37.019Z,-2.60
2023-04-05T04:21:07.190Z,-2.60
2023-04-05T04:23:38.581Z,-2.60
2023-04-05T04:26:09.894Z,-2.70
2023-04-05T04:28:38.765Z,-2.70
2023-04-05T04:31:09.463Z,-2.80
2023-04-05T04:33:40.238Z,-2.90
2023-04-05T04:36:13.556Z,-2.80
2023-04-05T04:38:44.278Z,-2.70
2023-04-05T04:41:12.930Z,-2.70
2023-04-05T04:43:43.928Z,-2.80
2023-04-05T04:46:15.110Z,-2.80
2023-04-05T04:48:46.719Z,-2.70
2023-04-05T04:51:15.192Z,-2.70
2023-04-05T04:53:43.606Z,-2.60
2023-04-05T04:56:12.313Z,-2.70
2023-04-05T04:58:40.747Z,-2.70
2023-04-05T05:01:10.196Z,-2.60
2023-04-05T05:03:39.206Z,-2.60
2023-04-05T05:06:09.468Z,-2.60
2023-04-05T05:08:38.252Z,-2.50
2023-04-05T05:11:08.797Z,-2.50
2023-04-05T05:13:37.329Z,-2.50
2023-04-05T05:16:06.990Z,-2.40
2023-04-05T05:18:35.287Z,-2.40
2023-04-05T05:21:03.600Z,-2.30
2023-04-05T05:23:33.740Z,-2.20
2023-04-05T05:26:02.466Z,-2.20
2023-04-05T05:28:30.882Z,-2.10
2023-04-05T05:30:59.385Z,-1.90
2023-04-05T05:33:27.806Z,-1.80
2023-04-05T05:35:56.277Z,-1.70
2023-04-05T05:38:24.728Z,-1.50
2023-04-05T05:40:58.585Z,-1.40
2023-04-05T05:43:27.058Z,-1.20
2023-04-05T05:45:55.766Z,-1.00
2023-04-05T05:48:24.276Z,-0.80
2023-04-05T05:50:53.086Z,-0.70
2023-04-05T05:53:21.587Z,-0.40
2023-04-05T05:55:49.954Z,-0.20
2023-04-05T05:58:19.780Z,0.00
2023-04-05T06:00:50.579Z,0.20
2023-04-05T06:03:19.468Z,0.40
2023-04-05T06:05:52.751Z,0.60
2023-04-05T06:08:21.251Z,0.70
2023-04-05T06:10:51.018Z,0.90
2023-04-05T06:13:20.856Z,1.10
2023-04-05T06:15:49.665Z,1.40
2023-04-05T06:18:18.409Z,1.50
2023-04-05T06:20:46.797Z,1.70
2023-04-05T06:23:15.520Z,1.90
2023-04-05T06:25:44.648Z,2.20
2023-04-05T06:28:13.198Z,2.50
2023-04-05T06:30:43.122Z,2.70
2023-04-05T06:33:11.536Z,3.10
2023-04-05T06:35:40.059Z,3.10
2023-04-05T06:38:09.395Z,3.10
2023-04-05T06:40:37.846Z,3.30
2023-04-05T06:43:06.424Z,3.20
2023-04-05T06:45:34.903Z,3.20
2023-04-05T06:48:05.136Z,3.10
2023-04-05T06:50:34.113Z,3.10
2023-04-05T06:53:03.946Z,2.90
2023-04-05T06:55:32.149Z,3.10
2023-04-05T06:58:00.561Z,3.10
2023-04-05T07:00:29.023Z,3.10
2023-04-05T07:02:57.501Z,3.10
2023-04-05T07:05:27.402Z,3.20
2023-04-05T07:07:55.834Z,3.40
2023-04-05T07:10:24.106Z,3.60
2023-04-05T07:12:52.530Z,3.90
2023-04-05T07:15:20.969Z,4.00
2023-04-05T07:17:49.539Z,3.90
2023-04-05T07:20:18.082Z,4.50
2023-04-05T07:22:47.861Z,4.30
2023-04-05T07:25:16.611Z,4.90
2023-04-05T07:27:44.890Z,5.50
2023-04-05T07:30:14.396Z,5.50
2023-04-05T07:32:42.960Z,5.30
2023-04-05T07:35:11.782Z,5.40
2023-04-05T07:37:40.631Z,5.90
2023-04-05T07:40:12.154Z,5.10
2023-04-05T07:42:40.800Z,5.60
2023-04-05T07:45:09.929Z,5.40
2023-04-05T07:47:38.402Z,6.30
2023-04-05T07:50:09.659Z,7.40
2023-04-05T07:52:38.288Z,7.90
2023-04-05T07:55:08.342Z,7.00
2023-04-05T07:57:38.606Z,6.30
2023-04-05T08:00:13.300Z,7.50
2023-04-05T08:02:47.465Z,7.70
2023-04-05T08:05:16.054Z,8.00
2023-04-05T08:07:44.482Z,8.80
2023-04-05T08:10:12.972Z,9.30
2023-04-05T08:12:43.126Z,9.40
2023-04-05T08:15:12.151Z,9.50
2023-04-05T08:17:40.569Z,8.40
2023-04-05T08:20:10.534Z,7.40
2023-04-05T08:22:38.967Z,7.00
2023-04-05T08:25:08.632Z,7.30
2023-04-05T08:27:37.052Z,7.20
2023-04-05T08:30:09.284Z,7.70
2023-04-05T08:32:37.776Z,9.20
2023-04-05T08:35:06.957Z,9.90
2023-04-05T08:37:35.701Z,9.70
2023-04-05T08:40:04.821Z,9.20
2023-04-05T08:42:37.768Z,9.90
2023-04-05T08:45:11.517Z,10.00
2023-04-05T08:47:40.113Z,9.00
2023-04-05T08:50:13.562Z,9.50
2023-04-05T08:52:44.283Z,8.90
2023-04-05T08:55:13.129Z,9.10
2023-04-05T08:57:44.387Z,9.60
2023-04-05T09:00:16.094Z,10.00
2023-04-05T09:02:46.351Z,10.00
2023-04-05T09:05:16.941Z,9.70
2023-04-05T09:07:47.893Z,9.60
2023-04-05T09:10:17.024Z,9.50
2023-04-05T09:12:45.506Z,9.40
2023-04-05T09:15:16.363Z,9.40
2023-04-05T09:17:45.071Z,10.20
2023-04-05T09:20:13.518Z,9.90
2023-04-05T09:22:46.476Z,10.50
2023-04-05T09:25:35.495Z,10.80
2023-04-05T09:28:04.573Z,11.10
2023-04-05T09:30:37.092Z,10.70
2023-04-05T09:33:08.520Z,9.70
2023-04-05T09:35:38.476Z,9.20
2023-04-05T09:38:07.145Z,9.10
2023-04-05T09:40:43.842Z,9.40
2023-04-05T09:43:13.104Z,8.70
2023-04-05T09:45:45.943Z,8.10
2023-04-05T09:48:14.368Z,7.50
2023-04-05T09:50:43.454Z,7.20
2023-04-05T09:53:16.156Z,7.40
2023-04-05T09:55:45.206Z,7.40
2023-04-05T09:58:14.566Z,7.20
2023-04-05T10:01:00.013Z,7.50
2023-04-05T10:03:48.866Z,7.60
2023-04-05T10:06:18.006Z,7.60
2023-04-05T10:08:48.069Z,8.10
2023-04-05T10:11:19.720Z,9.20
2023-04-05T10:13:50.183Z,9.70
2023-04-05T10:16:23.126Z,9.80
2023-04-05T10:18:53.266Z,9.90
2023-04-05T10:21:24.176Z,9.90
2023-04-05T10:23:57.557Z,9.30
2023-04-05T10:26:35.701Z,9.20
2023-04-05T10:29:13.334Z,9.50
2023-04-05T10:31:52.208Z,9.50
2023-04-05T10:34:30.767Z,9.30
2023-04-05T10:37:01.851Z,8.40
2023-04-05T10:39:33.389Z,8.10
2023-04-05T10:42:08.508Z,7.50
2023-04-05T10:44:38.412Z,8.10
2023-04-05T10:47:08.066Z,8.50
2023-04-05T10:49:41.273Z,7.70
2023-04-05T10:52:11.010Z,7.60
2023-04-05T10:54:39.900Z,7.80
2023-04-05T10:57:11.389Z,8.00
2023-04-05T10:59:43.938Z,7.90
2023-04-05T11:02:15.181Z,7.70
2023-04-05T11:04:44.340Z,8.40
2023-04-05T11:07:14.781Z,8.80
2023-04-05T11:09:54.360Z,9.50
2023-04-05T11:13:04.613Z,9.90
2023-04-05T11:15:34.664Z,9.80
2023-04-05T11:18:06.178Z,9.90
2023-04-05T11:20:45.913Z,8.70
2023-04-05T11:23:15.857Z,8.70
2023-04-05T11:25:47.704Z,8.90
2023-04-05T11:28:29.238Z,9.30
2023-04-05T11:30:59.360Z,10.00
2023-04-05T11:33:40.057Z,10.30
2023-04-05T11:36:10.267Z,9.80
2023-04-05T11:38:38.831Z,9.90
2023-04-05T11:41:12.366Z,10.20
2023-04-05T11:43:42.576Z,10.10
2023-04-05T11:46:11.117Z,10.80
2023-04-05T11:48:42.191Z,10.40
2023-04-05T11:51:11.767Z,10.20
2023-04-05T11:53:40.175Z,10.60
2023-04-05T11:56:12.611Z,10.90
2023-04-05T11:58:41.241Z,10.90
2023-04-05T12:01:10.487Z,10.50
2023-04-05T12:03:40.774Z,10.90
2023-04-05T12:06:09.284Z,11.40
2023-04-05T12:08:42.390Z,11.60
2023-04-05T12:11:13.191Z,11.40
2023-04-05T12:13:41.815Z,11.50
2023-04-05T12:16:10.865Z,11.70
2023-04-05T12:18:40.645Z,12.10
2023-04-05T12:21:10.341Z,11.60
2023-04-05T12:23:38.980Z,12.80
2023-04-05T12:26:09.264Z,14.00
2023-04-05T12:28:54.026Z,13.20
2023-04-05T12:31:39.939Z,12.80
2023-04-05T12:34:10.977Z,12.40
2023-04-05T12:36:40.206Z,11.60
2023-04-05T12:39:10.580Z,11.20
2023-04-05T12:41:39.159Z,10.80
2023-04-05T12:44:07.980Z,9.90
2023-04-05T12:46:44.936Z,10.90
2023-04-05T12:49:16.240Z,13.20
2023-04-05T12:51:46.233Z,13.30
2023-04-05T12:54:15.417Z,11.60
2023-04-05T12:56:43.905Z,10.20
2023-04-05T12:59:12.784Z,10.30
2023-04-05T13:01:41.204Z,9.90
2023-04-05T13:04:16.124Z,9.40
2023-04-05T13:06:47.558Z,8.50
2023-04-05T13:09:16.543Z,8.30
2023-04-05T13:11:44.976Z,8.20
2023-04-05T13:14:13.400Z,8.30
2023-04-05T13:16:41.801Z,8.70
2023-04-05T13:19:10.294Z,9.00
2023-04-05T13:21:38.714Z,9.40
2023-04-05T13:24:10.896Z,9.50
2023-04-05T13:26:41.302Z,9.20
2023-04-05T13:29:09.715Z,9.20
2023-04-05T13:31:38.158Z,10.10
2023-04-05T13:34:06.768Z,11.30
2023-04-05T13:36:35.567Z,12.40
2023-04-05T13:39:04.337Z,12.80
2023-04-05T13:41:34.304Z,10.90
2023-04-05T13:44:04.466Z,9.80
2023-04-05T13:46:34.471Z,9.10
2023-04-05T13:49:03.332Z,8.60
2023-04-05T13:51:34.343Z,8.30
2023-04-05T13:54:02.876Z,7.70
2023-04-05T13:56:31.232Z,7.50
2023-04-05T13:59:01.192Z,8.30
2023-04-05T14:01:29.834Z,8.30
2023-04-05T14:03:58.356Z,9.00
2023-04-05T14:06:27.232Z,9.60
2023-04-05T14:08:56.295Z,10.20
2023-04-05T14:11:25.925Z,10.20
2023-04-05T14:13:54.748Z,10.30
2023-04-05T14:16:24.872Z,11.20
2023-04-05T14:18:53.923Z,12.20
2023-04-05T14:21:22.723Z,11.80
2023-04-05T14:23:54.235Z,10.30
2023-04-05T14:26:22.754Z,10.20
2023-04-05T14:28:51.259Z,10.30
2023-04-05T14:31:19.882Z,10.70
2023-04-05T14:33:49.866Z,10.80
2023-04-05T14:36:18.144Z,10.50
2023-04-05T14:38:46.606Z,10.10
2023-04-05T14:41:15.587Z,9.60
2023-04-05T14:43:44.464Z,9.60
2023-04-05T14:46:13.059Z,9.30
2023-04-05T14:48:41.969Z,8.60
2023-04-05T14:51:11.944Z,8.40
2023-04-05T14:53:41.422Z,8.20
2023-04-05T14:56:10.964Z,8.10
2023-04-05T14:58:39.450Z,7.70
2023-04-05T15:01:10.162Z,7.40
2023-04-05T15:03:38.839Z,6.90
2023-04-05T15:06:07.800Z,6.90
2023-04-05T15:08:37.734Z,6.70
2023-04-05T15:11:06.361Z,6.50
2023-04-05T15:13:35.624Z,6.70
2023-04-05T15:16:04.733Z,6.80
2023-04-05T15:18:33.333Z,6.80
2023-04-05T15:21:02.594Z,6.80
2023-04-05T15:23:32.696Z,6.60
2023-04-05T15:26:02.989Z,6.50
2023-04-05T15:28:31.555Z,6.50
2023-04-05T15:31:00.364Z,6.40
2023-04-05T15:33:28.969Z,6.40
2023-04-05T15:35:57.550Z,6.60
2023-04-05T15:38:26.103Z,6.80
2023-04-05T15:40:54.626Z,6.80
2023-04-05T15:43:25.218Z,6.90
2023-04-05T15:45:53.833Z,7.20
2023-04-05T15:48:22.359Z,7.50
2023-04-05T15:50:51.162Z,7.60
2023-04-05T15:53:19.718Z,7.60
2023-04-05T15:55:48.262Z,7.60
2023-04-05T15:58:16.780Z,8.00
2023-04-05T16:00:46.659Z,8.30
2023-04-05T16:03:14.982Z,8.10
2023-04-05T16:05:43.513Z,8.10
2023-04-05T16:08:12.210Z,7.80
2023-04-05T16:10:42.480Z,7.70
2023-04-05T16:13:11.184Z,7.60
2023-04-05T16:15:39.753Z,7.60
2023-04-05T16:18:12.129Z,7.10
2023-04-05T16:20:41.253Z,6.70
2023-04-05T16:23:10.493Z,6.70
2023-04-05T16:25:39.029Z,6.90
2023-04-05T16:28:07.699Z,7.10
2023-04-05T16:30:36.428Z,6.80
2023-04-05T16:33:05.101Z,7.00
2023-04-05T16:35:35.210Z,6.70
2023-04-05T16:38:04.161Z,6.50
2023-04-05T16:40:33.973Z,6.30
2023-04-05T16:43:02.586Z,6.30
2023-04-05T16:45:33.837Z,6.40
2023-04-05T16:48:02.775Z,6.50
2023-04-05T16:50:31.734Z,6.50
2023-04-05T16:53:01.616Z,6.60
2023-04-05T16:55:29.963Z,6.70
2023-04-05T16:57:58.352Z,6.80
2023-04-05T17:00:27.079Z,6.80
2023-04-05T17:02:55.734Z,6.50
2023-04-05T17:05:24.396Z,6.30
2023-04-05T17:07:53.091Z,6.10
2023-04-05T17:10:22.986Z,5.90
2023-04-05T17:12:51.309Z,5.70
2023-04-05T17:15:19.850Z,5.50
2023-04-05T17:17:48.672Z,5.40
2023-04-05T17:20:17.303Z,5.20
2023-04-05T17:22:45.980Z,5.10
2023-04-05T17:25:15.083Z,4.90
2023-04-05T17:27:45.002Z,4.90
2023-04-05T17:30:14.487Z,4.70
2023-04-05T17:32:43.285Z,4.60
2023-04-05T17:35:11.852Z,4.50
2023-04-05T17:37:40.351Z,4.50
2023-04-05T17:40:09.889Z,4.30
2023-04-05T17:42:38.378Z,4.20
2023-04-05T17:45:09.782Z,4.20
2023-04-05T17:47:38.547Z,4.10
2023-04-05T17:50:08.098Z,4.10
2023-04-05T17:52:36.613Z,4.00
2023-04-05T17:55:06.251Z,3.90
2023-04-05T17:57:34.801Z,3.90
2023-04-05T18:00:06.494Z,3.80
2023-04-05T18:02:37.319Z,3.80
2023-04-05T18:05:06.420Z,3.80
2023-04-05T18:07:37.447Z,3.70
2023-04-05T18:10:07.417Z,3.60
2023-04-05T18:12:36.576Z,3.50
2023-04-05T18:15:05.480Z,3.40
2023-04-05T18:17:34.363Z,3.30
2023-04-05T18:20:04.797Z,3.30
2023-04-05T18:22:34.265Z,3.20
2023-04-05T18:25:02.792Z,3.10
2023-04-05T18:27:32.746Z,2.90
2023-04-05T18:30:01.456Z,2.80
2023-04-05T18:32:30.095Z,2.70
2023-04-05T18:34:58.596Z,2.60
2023-04-05T18:37:28.581Z,2.40
2023-04-05T18:39:57.373Z,2.30
2023-04-05T18:42:26.132Z,2.20
2023-04-05T18:44:54.758Z,2.10
2023-04-05T18:47:23.344Z,2.10
2023-04-05T18:49:52.154Z,2.00
2023-04-05T18:52:23.813Z,1.90
2023-04-05T18:54:58.301Z,1.90
2023-04-05T18:57:27.678Z,1.80
2023-04-05T18:59:56.323Z,1.70
2023-04-05T19:02:24.987Z,1.70
2023-04-05T19:04:55.435Z,1.60
2023-04-05T19:07:24.626Z,1.50
2023-04-05T19:09:54.501Z,1.50
2023-04-05T19:12:23.024Z,1.40
2023-04-05T19:14:51.541Z,1.20
2023-04-05T19:17:20.240Z,1.20
2023-04-05T19:19:49.222Z,1.20
2023-04-05T19:22:17.686Z,1.00
2023-04-05T19:24:46.171Z,0.90
2023-04-05T19:27:16.137Z,0.80
2023-04-05T19:29:44.958Z,0.80
2023-04-05T19:32:13.893Z,0.70
2023-04-05T19:34:42.588Z,0.60
2023-04-05T19:37:11.333Z,0.60
2023-04-05T19:39:40.806Z,0.50
2023-04-05T19:42:09.326Z,0.50
2023-04-05T19:44:50.648Z,0.50
2023-04-05T19:47:21.094Z,0.60
2023-04-05T19:49:51.229Z,0.60
2023-04-05T19:52:49.420Z,0.60
2023-04-05T19:55:29.148Z,0.50
2023-04-05T19:57:58.559Z,0.50
2023-04-05T20:00:34.374Z,0.50
2023-04-05T20:03:03.343Z,0.40
2023-04-05T20:06:11.492Z,0.40
2023-04-05T20:08:41.593Z,0.30
2023-04-05T20:11:12.929Z,0.30
2023-04-05T20:13:45.697Z,0.30
2023-04-05T20:16:16.530Z,0.30
2023-04-05T20:18:48.995Z,0.30
2023-04-05T20:21:18.040Z,0.20
2023-04-05T20:23:46.924Z,0.20
2023-04-05T20:26:16.933Z,0.20
2023-04-05T20:28:53.364Z,0.20
2023-04-05T20:31:25.696Z,0.10
2023-04-05T20:33:56.170Z,0.10
2023-04-05T20:36:32.060Z,0.20
2023-04-05T20:39:02.337Z,0.10
2023-04-05T20:41:31.425Z,0.10
2023-04-05T20:44:00.579Z,0.10
2023-04-05T20:46:30.619Z,0.10
2023-04-05T20:48:59.309Z,0.10
2023-04-05T20:51:27.895Z,0.10
2023-04-05T20:53:57.050Z,0.10
2023-04-05T20:56:25.890Z,0.00
2023-04-05T20:58:55.897Z,0.00
2023-04-05T21:01:24.717Z,0.00
2023-04-05T21:03:55.050Z,0.00
2023-04-05T21:06:23.611Z,0.00
2023-04-05T21:08:52.484Z,0.00
2023-04-05T21:11:21.537Z,0.00
2023-04-05T21:13:50.375Z,0.10
2023-04-05T21:16:18.897Z,0.10
2023-04-05T21:18:47.457Z,0.10
2023-04-05T21:21:17.362Z,0.20
2023-04-05T21:23:45.947Z,0.20
2023-04-05T21:26:14.481Z,0.20
2023-04-05T21:28:43.019Z,0.20
2023-04-05T21:31:11.954Z,0.20
2023-04-05T21:33:41.558Z,0.20
2023-04-05T21:36:10.191Z,0.20
2023-04-05T21:38:40.515Z,0.20
2023-04-05T21:41:09.076Z,0.20
2023-04-05T21:43:37.982Z,0.20
2023-04-05T21:46:06.665Z,0.10
2023-04-05T21:48:35.202Z,0.20
2023-04-05T21:51:03.828Z,0.10
2023-04-05T21:53:32.353Z,0.10
2023-04-05T21:56:02.230Z,0.00
2023-04-05T21:58:30.738Z,-0.10
2023-04-05T22:01:00.276Z,-0.10
2023-04-05T22:03:28.899Z,-0.20
2023-04-05T22:05:57.481Z,-0.20
2023-04-05T22:08:26.760Z,-0.30
2023-04-05T22:10:55.380Z,-0.40
2023-04-05T22:13:25.582Z,-0.40
2023-04-05T22:15:54.131Z,-0.60
2023-04-05T22:18:25.399Z,-0.60
2023-04-05T22:20:53.919Z,-0.70
2023-04-05T22:23:22.434Z,-0.80
2023-04-05T22:25:51.489Z,-0.80
2023-04-05T22:28:21.557Z,-0.90
2023-04-05T22:30:51.483Z,-0.90
2023-04-05T22:33:19.977Z,-0.80
2023-04-05T22:35:48.579Z,-1.00
2023-04-05T22:38:17.164Z,-1.10
2023-04-05T22:40:46.422Z,-1.20
2023-04-05T22:43:15.006Z,-1.20
2023-04-05T22:45:43.673Z,-1.30
2023-04-05T22:48:13.594Z,-1.30
2023-04-05T22:50:42.066Z,-1.40
2023-04-05T22:53:10.696Z,-1.50
2023-04-05T22:55:40.091Z,-1.50
2023-04-05T22:58:08.861Z,-1.60
2023-04-05T23:00:38.500Z,-1.70
2023-04-05T23:03:07.157Z,-1.80
2023-04-05T23:05:38.415Z,-1.90
2023-04-05T23:08:07.110Z,-1.90
2023-04-05T23:10:35.601Z,-2.00
2023-04-05T23:13:04.174Z,-1.80
2023-04-05T23:15:32.714Z,-1.80
2023-04-05T23:18:01.232Z,-1.90
2023-04-05T23:20:29.860Z,-1.90
2023-04-05T23:22:59.697Z,-2.00
2023-04-05T23:25:28.288Z,-2.00
2023-04-05T23:27:56.908Z,-2.00
2023-04-05T23:30:25.546Z,-1.90
2023-04-05T23:32:54.419Z,-2.00
2023-04-05T23:35:22.982Z,-2.10
2023-04-05T23:37:51.505Z,-2.30
2023-04-05T23:40:22.433Z,-2.40
2023-04-05T23:42:51.325Z,-2.40
2023-04-05T23:45:19.854Z,-2.50
2023-04-05T23:47:48.427Z,-2.40
2023-04-05T23:50:17.111Z,-2.40
2023-04-05T23:52:45.650Z,-2.40
2023-04-05T23:55:14.151Z,-2.60
2023-04-05T23:57:44.294Z,-2.70
